DAUH/HME METAR and TAF weather

Enter ICAO airport designator
Station Type Date Time Source
DAUH METAR 2018/10/21 06:00 UTC NOAA

DAUH 210600Z 04007KT 9999 FEW040 SCT100 22/13 Q1017


Station Type Date Time Source
DAUH Decoded METAR 2018/10/21 06:00 UTC NOAA

Hassi-Messaoud, Algeria (DAUH) 31-40N 006-09E 142M
Oct 21, 2018 - 02:00 AM EDT / 2018.10.21 0600 UTC
Wind: from the NE (040 degrees) at 8 MPH (7 KT):0
Visibility: greater than 7 mile(s):0
Sky conditions: partly cloudy
Temperature: 71 F (22 C)
Dew Point: 55 F (13 C)
Relative Humidity: 56%
Pressure (altimeter): 30.03 in. Hg (1017 hPa)
ob: DAUH 210600Z 04007KT 9999 FEW040 SCT100 22/13 Q1017
cycle: 6

Station Type Date Time Source
DAUH TAF 2018/10/21 06:33 UTC NOAA

TAF DAUH 210500Z 2106/2206 06010KT 9999 FEW040 SCT100 PROB30
TEMPO 2106/2112 FEW040TCU PROB30
TEMPO 2112/2115 5000 HZ FEW040TCU


Example: see airport list